Terminal Aerodrome Forecast
Issued by NWS Binghamton, NY

Home | Current Version | Previous Version | Text Only | Print | Product List | Glossary On
Versions: 1 2 3 4 5 6 7 8 9 10 11 12 13 14 15 16 17 18 19
991
FTUS41 KBGM 310526
TAFAVP
TAF
KAVP 310526Z 3106/0106 VRB03KT 4SM BR SCT200
      TEMPO 3108/3112 2SM BR
     FM311200 33007KT P6SM FEW250
     FM010100 02004KT P6SM FEW250=

USA.gov is the U.S. government's official web portal to all federal, state and local government web resources and services.